createdAt,value
2023-05-01T00:00:44.805Z,30.33
2023-05-01T00:01:44.835Z,29.05
2023-05-01T00:02:44.954Z,33.26
2023-05-01T00:03:45.131Z,31.94
2023-05-01T00:04:45.135Z,28.29
2023-05-01T00:05:45.088Z,27.95
2023-05-01T00:06:45.239Z,32.91
2023-05-01T00:07:45.210Z,32.02
2023-05-01T00:08:45.280Z,33.15
2023-05-01T00:09:45.326Z,28.59
2023-05-01T00:10:45.414Z,31.19
2023-05-01T00:11:45.509Z,27.81
2023-05-01T00:12:45.508Z,28.85
2023-05-01T00:13:45.531Z,31.81
2023-05-01T00:14:45.604Z,26.21
2023-05-01T00:15:45.613Z,29.40
2023-05-01T00:16:45.729Z,26.06
2023-05-01T00:17:45.811Z,30.32
2023-05-01T00:18:45.792Z,32.70
2023-05-01T00:19:45.861Z,31.40
2023-05-01T00:20:45.940Z,27.09
2023-05-01T00:21:46.002Z,29.56
2023-05-01T00:22:46.080Z,25.00
2023-05-01T00:23:46.139Z,28.81
2023-05-01T00:24:46.191Z,29.91
2023-05-01T00:25:46.223Z,28.27
2023-05-01T00:26:46.328Z,30.61
2023-05-01T00:27:46.352Z,28.92
2023-05-01T00:28:46.404Z,31.21
2023-05-01T00:29:46.479Z,26.56
2023-05-01T00:30:46.543Z,30.23
2023-05-01T00:31:46.653Z,29.76
2023-05-01T00:32:46.663Z,31.64
2023-05-01T00:33:46.675Z,27.93
2023-05-01T00:34:46.730Z,28.56
2023-05-01T00:35:46.795Z,29.82
2023-05-01T00:36:48.099Z,31.57
2023-05-01T00:37:46.852Z,29.92
2023-05-01T00:38:46.830Z,27.43
2023-05-01T00:39:46.860Z,27.69
2023-05-01T00:40:46.806Z,32.16
2023-05-01T00:41:46.806Z,29.38
2023-05-01T00:42:46.812Z,29.15
2023-05-01T00:43:46.822Z,29.47
2023-05-01T00:44:46.793Z,28.58
2023-05-01T00:45:46.837Z,29.68
2023-05-01T00:46:46.807Z,33.13
2023-05-01T00:47:46.786Z,31.55
2023-05-01T00:48:46.782Z,31.61
2023-05-01T00:49:46.761Z,30.50
2023-05-01T00:50:46.770Z,30.14
2023-05-01T00:51:46.763Z,28.34
2023-05-01T00:52:46.761Z,30.32
2023-05-01T00:53:46.754Z,31.67
2023-05-01T00:54:46.744Z,27.82
2023-05-01T00:55:46.727Z,28.34
2023-05-01T00:56:46.720Z,32.24
2023-05-01T00:57:46.727Z,30.22
2023-05-01T00:58:46.702Z,31.86
2023-05-01T00:59:46.672Z,29.55
2023-05-01T01:00:46.702Z,27.56
2023-05-01T01:01:46.974Z,29.02
2023-05-01T01:02:46.744Z,27.54
2023-05-01T01:03:46.665Z,28.97
2023-05-01T01:04:46.754Z,29.73
2023-05-01T01:05:46.668Z,27.62
2023-05-01T01:06:46.726Z,26.63
2023-05-01T01:07:46.651Z,30.57
2023-05-01T01:08:46.627Z,25.25
2023-05-01T01:09:46.646Z,28.46
2023-05-01T01:10:46.613Z,26.24
2023-05-01T01:11:46.624Z,29.18
2023-05-01T01:12:46.625Z,26.98
2023-05-01T01:13:46.603Z,28.99
2023-05-01T01:14:46.577Z,25.17
2023-05-01T01:15:46.591Z,31.45
2023-05-01T01:16:46.614Z,28.33
2023-05-01T01:17:46.658Z,28.31
2023-05-01T01:18:46.597Z,32.70
2023-05-01T01:19:46.635Z,31.07
2023-05-01T01:20:46.731Z,31.31
2023-05-01T01:21:46.758Z,29.04
2023-05-01T01:22:46.831Z,27.60
2023-05-01T01:23:46.874Z,31.12
2023-05-01T01:24:46.907Z,27.56
2023-05-01T01:25:46.997Z,31.50
2023-05-01T01:26:47.002Z,29.74
2023-05-01T01:27:47.089Z,31.05
2023-05-01T01:28:47.114Z,30.54
2023-05-01T01:29:47.165Z,28.89
2023-05-01T01:30:47.259Z,30.21
2023-05-01T01:31:47.269Z,31.41
2023-05-01T01:32:47.356Z,33.48
2023-05-01T01:33:47.484Z,30.33
2023-05-01T01:34:47.440Z,30.59
2023-05-01T01:35:47.479Z,31.11
2023-05-01T01:36:47.514Z,31.47
2023-05-01T01:37:47.581Z,32.44
2023-05-01T01:38:47.624Z,33.70
2023-05-01T01:39:47.813Z,32.96
2023-05-01T01:40:47.796Z,30.24
2023-05-01T01:41:47.813Z,32.55
2023-05-01T01:42:47.867Z,32.85
2023-05-01T01:43:47.975Z,32.41
2023-05-01T01:44:47.935Z,31.23
2023-05-01T01:45:48.036Z,32.56
2023-05-01T01:46:48.092Z,32.81
2023-05-01T01:47:48.159Z,31.50
2023-05-01T01:48:48.167Z,29.66
2023-05-01T01:49:48.253Z,28.78
2023-05-01T01:50:48.272Z,27.56
2023-05-01T01:51:48.316Z,30.54
2023-05-01T01:52:48.380Z,30.93
2023-05-01T01:53:48.442Z,32.25
2023-05-01T01:54:48.496Z,34.62
2023-05-01T01:55:48.529Z,29.96
2023-05-01T01:56:48.609Z,29.81
2023-05-01T01:57:48.632Z,32.05
2023-05-01T01:58:48.669Z,27.72
2023-05-01T01:59:48.709Z,31.74
2023-05-01T02:00:48.737Z,29.72
2023-05-01T02:01:48.817Z,26.79
2023-05-01T02:02:48.941Z,29.07
2023-05-01T02:03:49.001Z,25.82
2023-05-01T02:04:48.881Z,27.15
2023-05-01T02:05:48.934Z,27.63
2023-05-01T02:06:49.034Z,26.78
2023-05-01T02:07:48.997Z,29.58
2023-05-01T02:08:49.052Z,28.82
2023-05-01T02:09:49.093Z,27.38
2023-05-01T02:10:49.146Z,30.49
2023-05-01T02:11:49.194Z,29.15
2023-05-01T02:12:49.186Z,28.84
2023-05-01T02:13:49.214Z,30.73
2023-05-01T02:14:49.225Z,26.02
2023-05-01T02:15:49.314Z,28.80
2023-05-01T02:16:49.287Z,28.73
2023-05-01T02:17:49.321Z,29.41
2023-05-01T02:18:49.410Z,27.21
2023-05-01T02:19:49.379Z,28.89
2023-05-01T02:20:49.405Z,26.87
2023-05-01T02:21:49.466Z,25.26
2023-05-01T02:22:49.471Z,25.10
2023-05-01T02:23:49.545Z,27.76
2023-05-01T02:24:50.372Z,27.69
2023-05-01T02:25:49.635Z,30.58
2023-05-01T02:26:49.657Z,28.28
2023-05-01T02:27:49.736Z,25.65
2023-05-01T02:28:49.750Z,29.20
2023-05-01T02:29:49.796Z,29.22
2023-05-01T02:30:49.848Z,31.19
2023-05-01T02:31:49.921Z,27.69
2023-05-01T02:32:49.962Z,27.88
2023-05-01T02:33:49.906Z,32.14
2023-05-01T02:34:49.940Z,30.62
2023-05-01T02:35:49.961Z,29.40
2023-05-01T02:36:49.999Z,27.50
2023-05-01T02:37:50.002Z,28.93
2023-05-01T02:38:49.980Z,30.30
2023-05-01T02:39:49.955Z,30.83
2023-05-01T02:40:50.019Z,33.00
2023-05-01T02:41:50.049Z,29.01
2023-05-01T02:42:50.059Z,28.34
2023-05-01T02:43:50.068Z,29.27
2023-05-01T02:44:50.113Z,31.02
2023-05-01T02:45:50.158Z,30.37
2023-05-01T02:46:50.214Z,28.32
2023-05-01T02:47:50.212Z,28.11
2023-05-01T02:48:50.221Z,30.29
2023-05-01T02:49:50.229Z,30.07
2023-05-01T02:50:50.221Z,29.55
2023-05-01T02:51:50.260Z,29.49
2023-05-01T02:52:50.281Z,30.76
2023-05-01T02:53:50.282Z,28.67
2023-05-01T02:54:50.297Z,30.44
2023-05-01T02:55:50.330Z,29.30
2023-05-01T02:56:50.338Z,28.45
2023-05-01T02:57:50.371Z,28.38
2023-05-01T02:58:50.395Z,29.52
2023-05-01T02:59:50.407Z,28.13
2023-05-01T03:00:50.450Z,25.49
2023-05-01T03:01:50.490Z,27.48
2023-05-01T03:02:50.477Z,28.13
2023-05-01T03:03:50.451Z,27.61
2023-05-01T03:04:50.434Z,27.16
2023-05-01T03:05:50.477Z,27.63
2023-05-01T03:06:50.546Z,27.95
2023-05-01T03:07:50.489Z,30.27
2023-05-01T03:08:50.513Z,27.91
2023-05-01T03:09:50.479Z,29.31
2023-05-01T03:10:50.521Z,26.42
2023-05-01T03:11:50.541Z,27.70
2023-05-01T03:12:50.567Z,30.00
2023-05-01T03:13:50.537Z,25.59
2023-05-01T03:14:50.536Z,26.55
2023-05-01T03:15:50.604Z,27.57
2023-05-01T03:16:50.677Z,29.33
2023-05-01T03:17:50.624Z,26.62
2023-05-01T03:18:50.564Z,28.50
2023-05-01T03:19:50.580Z,27.99
2023-05-01T03:20:50.590Z,29.48
2023-05-01T03:21:50.620Z,28.47
2023-05-01T03:22:50.622Z,30.51
2023-05-01T03:23:50.648Z,29.66
2023-05-01T03:24:50.615Z,27.24
2023-05-01T03:25:50.620Z,28.91
2023-05-01T03:26:50.620Z,27.64
2023-05-01T03:27:50.634Z,29.98
2023-05-01T03:28:50.618Z,29.25
2023-05-01T03:29:50.600Z,27.28
2023-05-01T03:30:50.583Z,26.66
2023-05-01T03:31:50.678Z,26.91
2023-05-01T03:32:50.642Z,28.58
2023-05-01T03:33:50.616Z,28.33
2023-05-01T03:34:50.700Z,27.65
2023-05-01T03:35:50.644Z,26.90
2023-05-01T03:36:50.673Z,30.54
2023-05-01T03:37:50.665Z,28.46
2023-05-01T03:38:50.711Z,30.90
2023-05-01T03:39:50.739Z,29.43
2023-05-01T03:40:50.733Z,30.66
2023-05-01T03:41:50.749Z,29.32
2023-05-01T03:42:50.751Z,31.18
2023-05-01T03:43:50.767Z,29.81
2023-05-01T03:44:50.778Z,31.18
2023-05-01T03:45:50.778Z,31.64
2023-05-01T03:46:50.746Z,30.24
2023-05-01T03:47:50.820Z,26.73
2023-05-01T03:48:50.716Z,30.12
2023-05-01T03:49:50.727Z,27.79
2023-05-01T03:50:50.717Z,31.04
2023-05-01T03:51:50.750Z,28.78
2023-05-01T03:52:50.778Z,30.88
2023-05-01T03:53:50.796Z,28.76
2023-05-01T03:54:50.753Z,28.90
2023-05-01T03:55:50.799Z,31.84
2023-05-01T03:56:50.823Z,30.25
2023-05-01T03:57:50.807Z,30.11
2023-05-01T03:58:50.888Z,27.88
2023-05-01T03:59:50.811Z,29.56
2023-05-01T04:00:50.805Z,28.71
2023-05-01T04:01:50.803Z,29.14
2023-05-01T04:02:51.066Z,27.18
2023-05-01T04:03:50.918Z,28.08
2023-05-01T04:04:50.808Z,28.26
2023-05-01T04:05:50.774Z,31.07
2023-05-01T04:06:50.875Z,29.37
2023-05-01T04:07:50.790Z,30.59
2023-05-01T04:08:50.763Z,28.98
2023-05-01T04:09:50.771Z,29.60
2023-05-01T04:10:50.751Z,29.98
2023-05-01T04:11:50.785Z,31.26
2023-05-01T04:12:50.837Z,28.10
2023-05-01T04:13:50.731Z,30.56
2023-05-01T04:14:50.748Z,26.41
2023-05-01T04:15:50.836Z,27.22
2023-05-01T04:16:50.760Z,28.82
2023-05-01T04:17:50.789Z,28.73
2023-05-01T04:18:50.767Z,28.67
2023-05-01T04:19:50.738Z,28.41
2023-05-01T04:20:50.719Z,29.06
2023-05-01T04:21:50.738Z,28.61
2023-05-01T04:22:50.744Z,27.67
2023-05-01T04:23:50.732Z,27.50
2023-05-01T04:24:50.738Z,28.41
2023-05-01T04:25:50.697Z,28.83
2023-05-01T04:26:50.706Z,27.55
2023-05-01T04:27:50.722Z,26.51
2023-05-01T04:28:50.721Z,29.21
2023-05-01T04:29:50.734Z,28.04
2023-05-01T04:30:50.731Z,26.57
2023-05-01T04:31:50.756Z,30.52
2023-05-01T04:32:50.744Z,28.35
2023-05-01T04:33:50.733Z,27.89
2023-05-01T04:34:50.717Z,30.28
2023-05-01T04:35:50.703Z,27.80
2023-05-01T04:36:50.711Z,29.03
2023-05-01T04:37:50.724Z,28.05
2023-05-01T04:38:50.686Z,29.66
2023-05-01T04:39:50.695Z,28.78
2023-05-01T04:40:50.691Z,29.60
2023-05-01T04:41:50.709Z,26.77
2023-05-01T04:42:50.668Z,29.62
2023-05-01T04:43:50.717Z,30.00
2023-05-01T04:44:50.700Z,28.00
2023-05-01T04:45:50.656Z,27.74
2023-05-01T04:46:50.702Z,30.41
2023-05-01T04:47:50.697Z,29.72
2023-05-01T04:48:50.698Z,26.87
2023-05-01T04:49:50.708Z,29.31
2023-05-01T04:50:50.680Z,29.95
2023-05-01T04:51:50.687Z,26.49
2023-05-01T04:52:50.762Z,28.49
2023-05-01T04:53:50.712Z,26.49
2023-05-01T04:54:50.674Z,30.15
2023-05-01T04:55:50.711Z,28.17
2023-05-01T04:56:50.704Z,28.79
2023-05-01T04:57:50.682Z,30.51
2023-05-01T04:58:50.699Z,29.87
2023-05-01T04:59:50.720Z,28.46
2023-05-01T05:00:50.682Z,29.95
2023-05-01T05:01:50.711Z,30.91
2023-05-01T05:02:50.741Z,31.51
2023-05-01T05:03:50.705Z,31.18
2023-05-01T05:04:50.656Z,31.97
2023-05-01T05:05:50.688Z,30.44
2023-05-01T05:06:50.760Z,30.45
2023-05-01T05:07:50.668Z,32.65
2023-05-01T05:08:50.654Z,30.87
2023-05-01T05:09:50.656Z,31.67
2023-05-01T05:10:50.668Z,31.57
2023-05-01T05:11:50.647Z,30.79
2023-05-01T05:12:50.660Z,31.03
2023-05-01T05:13:50.659Z,30.62
2023-05-01T05:14:50.664Z,32.53
2023-05-01T05:15:50.647Z,31.04
2023-05-01T05:16:50.724Z,31.38
2023-05-01T05:17:50.682Z,33.17
2023-05-01T05:18:50.648Z,30.69
2023-05-01T05:19:50.651Z,30.51
2023-05-01T05:20:50.651Z,29.12
2023-05-01T05:21:50.662Z,29.52
2023-05-01T05:22:50.687Z,28.24
2023-05-01T05:23:50.641Z,31.14
2023-05-01T05:24:50.660Z,30.41
2023-05-01T05:25:50.634Z,29.39
2023-05-01T05:26:50.675Z,30.83
2023-05-01T05:27:50.676Z,31.52
2023-05-01T05:28:50.638Z,30.53
2023-05-01T05:29:50.649Z,29.36
2023-05-01T05:30:50.648Z,31.47
2023-05-01T05:31:50.660Z,30.40
2023-05-01T05:32:50.639Z,27.35
2023-05-01T05:33:50.665Z,31.04
2023-05-01T05:34:50.671Z,29.25
2023-05-01T05:35:50.633Z,29.50
2023-05-01T05:36:50.640Z,29.38
2023-05-01T05:37:50.644Z,29.54
2023-05-01T05:38:50.752Z,30.54
2023-05-01T05:39:50.637Z,25.72
2023-05-01T05:40:50.652Z,28.56
2023-05-01T05:41:50.650Z,31.11
2023-05-01T05:42:50.654Z,30.35
2023-05-01T05:43:50.666Z,28.19
2023-05-01T05:44:50.648Z,28.98
2023-05-01T05:45:50.681Z,28.61
2023-05-01T05:46:50.650Z,25.00
2023-05-01T05:47:50.694Z,28.70
2023-05-01T05:48:50.655Z,30.20
2023-05-01T05:49:50.650Z,32.09
2023-05-01T05:50:50.662Z,30.31
2023-05-01T05:51:50.652Z,32.09
2023-05-01T05:52:50.630Z,25.71
2023-05-01T05:53:50.643Z,30.35
2023-05-01T05:54:50.663Z,31.87
2023-05-01T05:55:50.682Z,31.36
2023-05-01T05:56:50.672Z,30.09
2023-05-01T05:57:50.696Z,29.68
2023-05-01T05:58:50.683Z,28.18
2023-05-01T05:59:50.698Z,27.13
2023-05-01T06:00:50.682Z,26.52
2023-05-01T06:01:50.712Z,27.75
2023-05-01T06:02:50.741Z,27.83
2023-05-01T06:03:50.757Z,30.76
2023-05-01T06:04:50.716Z,29.50
2023-05-01T06:05:50.802Z,33.71
2023-05-01T06:06:50.801Z,30.40
2023-05-01T06:07:50.716Z,30.22
2023-05-01T06:08:50.723Z,28.18
2023-05-01T06:09:50.719Z,28.85
2023-05-01T06:10:50.740Z,27.21
2023-05-01T06:11:50.751Z,26.44
2023-05-01T06:12:57.387Z,31.54
2023-05-01T06:13:51.737Z,31.77
2023-05-01T06:14:50.721Z,30.01
2023-05-01T06:15:50.749Z,31.57
2023-05-01T06:16:50.724Z,30.51
2023-05-01T06:17:50.756Z,30.26
2023-05-01T06:18:50.698Z,29.17
2023-05-01T06:19:50.697Z,28.30
2023-05-01T06:20:50.682Z,27.13
2023-05-01T06:21:50.689Z,27.74
2023-05-01T06:22:50.665Z,30.63
2023-05-01T06:23:50.629Z,26.15
2023-05-01T06:24:50.670Z,29.37
2023-05-01T06:25:50.654Z,27.71
2023-05-01T06:26:50.660Z,27.08
2023-05-01T06:27:50.630Z,27.13
2023-05-01T06:28:50.646Z,29.65
2023-05-01T06:29:50.596Z,25.67
2023-05-01T06:30:50.615Z,28.44
2023-05-01T06:31:50.620Z,26.91
2023-05-01T06:32:50.647Z,25.01
2023-05-01T06:33:50.588Z,27.24
2023-05-01T06:34:50.579Z,32.15
2023-05-01T06:35:50.581Z,30.38
2023-05-01T06:36:50.561Z,31.36
2023-05-01T06:37:50.572Z,30.73
2023-05-01T06:38:50.550Z,30.67
2023-05-01T06:39:50.534Z,31.30
2023-05-01T06:40:50.535Z,30.22
2023-05-01T06:41:50.522Z,31.63
2023-05-01T06:42:50.629Z,30.90
2023-05-01T06:43:50.535Z,29.28
2023-05-01T06:44:50.484Z,30.11
2023-05-01T06:45:50.506Z,32.33
2023-05-01T06:46:50.660Z,28.17
2023-05-01T06:47:50.516Z,27.35
2023-05-01T06:48:50.500Z,29.90
2023-05-01T06:49:50.468Z,31.04
2023-05-01T06:50:50.495Z,30.70
2023-05-01T06:51:50.433Z,30.09
2023-05-01T06:52:50.450Z,29.71
2023-05-01T06:53:50.492Z,31.01
2023-05-01T06:54:50.479Z,29.40
2023-05-01T06:55:50.479Z,30.11
2023-05-01T06:56:50.527Z,30.23
2023-05-01T06:57:50.523Z,29.56
2023-05-01T06:58:50.493Z,29.54
2023-05-01T06:59:50.528Z,29.42
2023-05-01T07:00:50.761Z,30.26
2023-05-01T07:01:50.582Z,31.46
2023-05-01T07:02:50.710Z,28.46
2023-05-01T07:03:50.545Z,28.76
2023-05-01T07:04:50.536Z,29.43
2023-05-01T07:05:50.553Z,30.88
2023-05-01T07:06:50.580Z,31.63
2023-05-01T07:08:00.333Z,30.34
2023-05-01T07:08:51.512Z,30.58
2023-05-01T07:09:50.502Z,31.38
2023-05-01T07:10:50.519Z,31.79
2023-05-01T07:11:50.486Z,31.28
2023-05-01T07:12:50.528Z,30.23
2023-05-01T07:13:50.484Z,27.93
2023-05-01T07:14:50.462Z,31.01
2023-05-01T07:15:52.298Z,33.29
2023-05-01T07:16:50.527Z,33.42
2023-05-01T07:17:50.541Z,31.57
2023-05-01T07:18:50.459Z,31.86
2023-05-01T07:19:50.416Z,29.87
2023-05-01T07:20:50.482Z,32.48
2023-05-01T07:21:50.472Z,30.76
2023-05-01T07:22:50.490Z,30.02
2023-05-01T07:23:50.434Z,33.64
2023-05-01T07:24:50.438Z,31.52
2023-05-01T07:25:50.479Z,28.42
2023-05-01T07:26:50.405Z,32.58
2023-05-01T07:27:50.439Z,31.48
2023-05-01T07:28:50.441Z,30.63
2023-05-01T07:29:50.477Z,30.76
2023-05-01T07:30:50.471Z,31.66
2023-05-01T07:31:50.481Z,31.06
2023-05-01T07:32:50.455Z,31.80
2023-05-01T07:33:51.232Z,31.67
2023-05-01T07:34:50.425Z,31.28
2023-05-01T07:35:50.331Z,33.09
2023-05-01T07:36:50.337Z,33.03
2023-05-01T07:37:50.322Z,29.13
2023-05-01T07:38:50.344Z,30.53
2023-05-01T07:39:50.298Z,31.65
2023-05-01T07:40:50.276Z,30.90
2023-05-01T07:41:50.279Z,30.94
2023-05-01T07:42:52.360Z,29.94
2023-05-01T07:43:50.262Z,30.06
2023-05-01T07:44:50.253Z,30.69
2023-05-01T07:45:50.278Z,32.08
2023-05-01T07:46:50.256Z,30.56
2023-05-01T07:47:50.287Z,31.32
2023-05-01T07:48:50.221Z,33.35
2023-05-01T07:49:50.237Z,31.97
2023-05-01T07:50:50.246Z,29.96
2023-05-01T07:51:50.210Z,31.50
2023-05-01T07:52:50.208Z,32.44
2023-05-01T07:53:50.199Z,31.49
2023-05-01T07:54:50.217Z,30.43
2023-05-01T07:55:50.160Z,31.24
2023-05-01T07:56:50.188Z,31.25
2023-05-01T07:57:50.205Z,30.71
2023-05-01T07:58:50.148Z,33.50
2023-05-01T07:59:50.159Z,30.04
2023-05-01T08:00:50.150Z,30.18
2023-05-01T08:01:50.155Z,28.89
2023-05-01T08:02:50.209Z,28.31
2023-05-01T08:03:51.050Z,32.05
2023-05-01T08:04:50.234Z,26.89
2023-05-01T08:05:50.130Z,31.60
2023-05-01T08:06:50.337Z,32.19
2023-05-01T08:07:50.078Z,28.89
2023-05-01T08:08:50.088Z,29.44
2023-05-01T08:09:50.086Z,29.75
2023-05-01T08:10:50.097Z,28.06
2023-05-01T08:11:50.078Z,29.18
2023-05-01T08:12:50.082Z,27.58
2023-05-01T08:13:50.042Z,28.92
2023-05-01T08:14:50.045Z,27.88
2023-05-01T08:15:50.124Z,26.33
2023-05-01T08:16:50.075Z,29.50
2023-05-01T08:17:50.252Z,28.91
2023-05-01T08:18:50.127Z,28.17
2023-05-01T08:19:50.083Z,29.85
2023-05-01T08:20:50.089Z,28.60
2023-05-01T08:21:50.184Z,29.59
2023-05-01T08:22:50.242Z,26.33
2023-05-01T08:23:50.299Z,28.90
2023-05-01T08:24:50.376Z,29.04
2023-05-01T08:25:50.412Z,28.20
2023-05-01T08:26:50.464Z,28.65
2023-05-01T08:27:50.580Z,26.10
2023-05-01T08:28:50.636Z,28.23
2023-05-01T08:29:50.652Z,27.79
2023-05-01T08:30:50.756Z,27.94
2023-05-01T08:31:50.916Z,29.42
2023-05-01T08:32:50.848Z,27.16
2023-05-01T08:33:50.875Z,29.74
2023-05-01T08:34:50.963Z,29.41
2023-05-01T08:35:51.021Z,27.63
2023-05-01T08:36:51.092Z,29.17
2023-05-01T08:37:51.145Z,29.15
2023-05-01T08:38:51.219Z,29.12
2023-05-01T08:39:51.253Z,30.92
2023-05-01T08:40:51.324Z,27.66
2023-05-01T08:41:51.444Z,28.10
2023-05-01T08:42:51.458Z,31.69
2023-05-01T08:43:51.533Z,29.36
2023-05-01T08:44:51.556Z,27.38
2023-05-01T08:45:51.652Z,27.65
2023-05-01T08:46:51.698Z,26.50
2023-05-01T08:47:51.777Z,31.69
2023-05-01T08:48:51.801Z,29.08
2023-05-01T08:49:51.881Z,29.12
2023-05-01T08:50:51.898Z,31.49
2023-05-01T08:51:51.978Z,29.03
2023-05-01T08:52:52.006Z,27.90
2023-05-01T08:53:52.098Z,27.58
2023-05-01T08:54:52.178Z,28.67
2023-05-01T08:55:52.202Z,25.39
2023-05-01T08:56:52.290Z,28.22
2023-05-01T08:57:52.373Z,28.21
2023-05-01T08:58:52.357Z,29.64
2023-05-01T08:59:52.436Z,28.13
2023-05-01T09:00:52.518Z,30.31
2023-05-01T09:01:52.675Z,27.18
2023-05-01T09:02:52.717Z,31.08
2023-05-01T09:03:52.791Z,29.38
2023-05-01T09:04:52.775Z,25.48
2023-05-01T09:05:52.820Z,28.22
2023-05-01T09:06:52.980Z,27.34
2023-05-01T09:07:52.945Z,26.26
2023-05-01T09:08:52.998Z,25.52
2023-05-01T09:09:53.162Z,29.35
2023-05-01T09:10:53.137Z,25.82
2023-05-01T09:11:53.197Z,29.04
2023-05-01T09:12:53.220Z,26.22
2023-05-01T09:13:53.285Z,29.87
2023-05-01T09:14:53.358Z,27.92
2023-05-01T09:15:53.477Z,28.79
2023-05-01T09:16:53.511Z,26.22
2023-05-01T09:17:53.549Z,27.47
2023-05-01T09:18:53.595Z,28.97
2023-05-01T09:19:53.681Z,29.26
2023-05-01T09:20:53.665Z,26.97
2023-05-01T09:21:53.734Z,27.59
2023-05-01T09:22:53.806Z,31.02
2023-05-01T09:23:53.864Z,27.27
2023-05-01T09:24:53.942Z,27.81
2023-05-01T09:25:53.950Z,28.66
2023-05-01T09:26:53.993Z,29.97
2023-05-01T09:27:54.073Z,28.92
2023-05-01T09:28:54.106Z,29.38
2023-05-01T09:29:54.155Z,28.67
2023-05-01T09:30:54.207Z,29.44
2023-05-01T09:31:54.336Z,32.36
2023-05-01T09:32:54.350Z,29.38
2023-05-01T09:33:54.381Z,31.41
2023-05-01T09:34:54.410Z,28.11
2023-05-01T09:35:54.465Z,27.93
2023-05-01T09:36:54.525Z,28.94
2023-05-01T09:37:54.574Z,28.78
2023-05-01T09:38:54.626Z,30.51
2023-05-01T09:39:54.829Z,29.38
2023-05-01T09:40:54.729Z,26.37
2023-05-01T09:41:54.789Z,31.52
2023-05-01T09:42:54.823Z,28.94
2023-05-01T09:43:54.900Z,30.80
2023-05-01T09:44:54.927Z,29.44
2023-05-01T09:45:55.033Z,29.75
2023-05-01T09:46:55.061Z,28.44
2023-05-01T09:47:55.116Z,33.59
2023-05-01T09:48:55.125Z,29.28
2023-05-01T09:49:55.343Z,28.35
2023-05-01T09:50:55.235Z,30.50
2023-05-01T09:51:55.275Z,32.11
2023-05-01T09:52:55.353Z,33.00
2023-05-01T09:53:55.373Z,29.50
2023-05-01T09:54:55.406Z,29.05
2023-05-01T09:55:55.462Z,30.78
2023-05-01T09:56:55.506Z,30.30
2023-05-01T09:57:55.551Z,30.81
2023-05-01T09:58:55.665Z,31.10
2023-05-01T09:59:55.851Z,30.15
2023-05-01T10:00:55.711Z,29.84
2023-05-01T10:01:55.795Z,32.20
2023-05-01T10:02:55.951Z,31.41
2023-05-01T10:03:56.208Z,31.86
2023-05-01T10:04:55.873Z,29.68
2023-05-01T10:05:55.926Z,30.42
2023-05-01T10:06:56.023Z,31.93
2023-05-01T10:07:56.028Z,29.79
2023-05-01T10:08:56.058Z,31.53
2023-05-01T10:09:57.548Z,30.38
2023-05-01T10:10:56.259Z,32.22
2023-05-01T10:11:56.071Z,30.20
2023-05-01T10:12:56.053Z,30.21
2023-05-01T10:13:56.050Z,32.94
2023-05-01T10:14:56.077Z,30.02
2023-05-01T10:15:56.053Z,31.84
2023-05-01T10:16:56.135Z,32.10
2023-05-01T10:17:56.101Z,30.68
2023-05-01T10:18:56.018Z,33.08
2023-05-01T10:19:56.198Z,30.40
2023-05-01T10:20:56.028Z,30.87
2023-05-01T10:21:56.024Z,33.33
2023-05-01T10:22:56.016Z,31.92
2023-05-01T10:23:56.007Z,32.62
2023-05-01T10:24:55.998Z,31.48
2023-05-01T10:25:55.968Z,29.28
2023-05-01T10:26:55.976Z,29.58
2023-05-01T10:27:55.980Z,30.97
2023-05-01T10:28:55.984Z,31.96
2023-05-01T10:29:56.175Z,33.93
2023-05-01T10:30:55.987Z,31.86
2023-05-01T10:31:55.977Z,32.31
2023-05-01T10:32:55.971Z,31.54
2023-05-01T10:33:55.920Z,29.20
2023-05-01T10:34:56.228Z,30.44
2023-05-01T10:35:55.930Z,29.04
2023-05-01T10:36:55.904Z,28.05
2023-05-01T10:37:55.902Z,27.89
2023-05-01T10:38:55.906Z,30.11
2023-05-01T10:39:55.888Z,26.08
2023-05-01T10:40:55.872Z,29.67
2023-05-01T10:41:55.881Z,30.35
2023-05-01T10:42:55.857Z,31.29
2023-05-01T10:43:55.824Z,29.15
2023-05-01T10:44:56.058Z,30.25
2023-05-01T10:45:55.857Z,29.63
2023-05-01T10:46:55.940Z,29.52
2023-05-01T10:47:55.886Z,31.72
2023-05-01T10:48:55.837Z,30.00
2023-05-01T10:49:55.798Z,29.09
2023-05-01T10:50:55.825Z,33.67
2023-05-01T10:51:55.777Z,27.24
2023-05-01T10:52:55.810Z,33.81
2023-05-01T10:53:55.762Z,32.67
2023-05-01T10:54:55.945Z,31.68
2023-05-01T10:55:55.768Z,29.03
2023-05-01T10:56:55.776Z,31.98
2023-05-01T10:57:55.733Z,29.35
2023-05-01T10:58:55.733Z,32.34
2023-05-01T10:59:55.730Z,31.37
2023-05-01T11:00:55.746Z,29.97
2023-05-01T11:01:55.812Z,30.45
2023-05-01T11:02:55.815Z,34.21
2023-05-01T11:03:55.827Z,31.66
2023-05-01T11:04:56.205Z,33.60
2023-05-01T11:05:55.921Z,30.70
2023-05-01T11:06:55.914Z,28.80
2023-05-01T11:07:55.955Z,31.74
2023-05-01T11:08:55.972Z,33.52
2023-05-01T11:09:56.051Z,32.29
2023-05-01T11:10:56.024Z,30.70
2023-05-01T11:11:56.089Z,33.54
2023-05-01T11:12:56.115Z,34.74
2023-05-01T11:13:56.132Z,33.36
2023-05-01T11:14:56.474Z,34.78
2023-05-01T11:15:56.182Z,34.37
2023-05-01T11:16:56.255Z,33.35
2023-05-01T11:17:56.282Z,33.88
2023-05-01T11:18:56.252Z,34.87
2023-05-01T11:19:56.272Z,34.95
2023-05-01T11:20:56.317Z,33.00
2023-05-01T11:21:56.343Z,34.32
2023-05-01T11:22:56.360Z,34.09
2023-05-01T11:23:56.400Z,35.49
2023-05-01T11:24:56.831Z,33.61
2023-05-01T11:25:56.434Z,35.34
2023-05-01T11:26:56.491Z,35.31
2023-05-01T11:27:56.515Z,35.58
2023-05-01T11:28:56.547Z,31.49
2023-05-01T11:29:56.570Z,34.41
2023-05-01T11:30:56.596Z,31.39
2023-05-01T11:31:56.653Z,36.02
2023-05-01T11:32:56.738Z,32.13
2023-05-01T11:33:56.656Z,34.71
2023-05-01T11:34:57.012Z,35.66
2023-05-01T11:35:56.702Z,36.48
2023-05-01T11:36:56.748Z,34.08
2023-05-01T11:37:56.820Z,33.11
2023-05-01T11:38:56.821Z,35.60
2023-05-01T11:39:56.862Z,34.25
2023-05-01T11:40:56.841Z,33.81
2023-05-01T11:41:56.933Z,36.36
2023-05-01T11:42:56.890Z,36.83
2023-05-01T11:43:56.913Z,37.30
2023-05-01T11:44:57.243Z,35.12
2023-05-01T11:45:57.016Z,34.76
2023-05-01T11:46:56.975Z,32.69
2023-05-01T11:47:57.093Z,34.32
2023-05-01T11:48:57.028Z,35.61
2023-05-01T11:49:57.103Z,33.05
2023-05-01T11:50:57.115Z,33.99
2023-05-01T11:51:57.151Z,34.25
2023-05-01T11:52:57.178Z,32.20
2023-05-01T11:53:57.203Z,36.61
2023-05-01T11:54:57.214Z,32.47
2023-05-01T11:55:57.246Z,35.23
2023-05-01T11:56:57.288Z,33.07
2023-05-01T11:57:57.319Z,32.51
2023-05-01T11:58:57.321Z,35.60
2023-05-01T11:59:57.381Z,32.07
2023-05-01T12:00:57.379Z,34.48
2023-05-01T12:01:57.446Z,35.03
2023-05-01T12:02:57.574Z,32.41
2023-05-01T12:03:57.653Z,34.03
2023-05-01T12:04:57.598Z,32.63
2023-05-01T12:05:57.510Z,35.76
2023-05-01T12:06:57.532Z,33.18
2023-05-01T12:07:57.535Z,33.05
2023-05-01T12:08:57.538Z,33.51
2023-05-01T12:09:57.613Z,33.37
2023-05-01T12:10:57.655Z,33.15
2023-05-01T12:11:57.612Z,35.77
2023-05-01T12:12:57.656Z,32.17
2023-05-01T12:13:57.618Z,33.78
2023-05-01T12:14:57.982Z,32.09
2023-05-01T12:15:57.673Z,34.50
2023-05-01T12:16:57.775Z,32.64
2023-05-01T12:17:57.776Z,32.86
2023-05-01T12:18:57.751Z,36.32
2023-05-01T12:19:57.746Z,31.97
2023-05-01T12:20:57.769Z,34.53
2023-05-01T12:21:57.781Z,33.57
2023-05-01T12:22:57.816Z,33.83
2023-05-01T12:23:57.853Z,35.43
2023-05-01T12:24:58.087Z,34.00
2023-05-01T12:25:57.859Z,31.62
2023-05-01T12:26:57.908Z,35.46
2023-05-01T12:27:57.927Z,30.37
2023-05-01T12:28:57.960Z,33.98
2023-05-01T12:29:57.960Z,35.33
2023-05-01T12:30:57.964Z,34.40
2023-05-01T12:31:58.047Z,35.95
2023-05-01T12:32:58.106Z,35.79
2023-05-01T12:33:58.038Z,35.81
2023-05-01T12:34:58.337Z,35.66
2023-05-01T12:35:58.059Z,36.34
2023-05-01T12:36:58.083Z,34.06
2023-05-01T12:37:58.134Z,34.40
2023-05-01T12:38:58.119Z,35.75
2023-05-01T12:39:58.138Z,35.59
2023-05-01T12:40:58.180Z,35.74
2023-05-01T12:41:58.195Z,33.38
2023-05-01T12:42:58.221Z,33.75
2023-05-01T12:43:58.220Z,33.82
2023-05-01T12:44:58.468Z,34.13
2023-05-01T12:45:58.319Z,36.49
2023-05-01T12:47:58.407Z,36.69
2023-05-01T12:48:58.288Z,36.32
2023-05-01T12:49:58.604Z,39.10
2023-05-01T12:50:58.366Z,34.94
2023-05-01T12:51:58.423Z,35.54
2023-05-01T12:52:58.412Z,35.67
2023-05-01T12:53:58.412Z,31.85